createdAt,value
2018-09-11T00:00:36.362Z,15.6
2018-09-11T00:01:37.767Z,15.7
2018-09-11T00:02:39.473Z,15.7
2018-09-11T00:03:40.876Z,15.6
2018-09-11T00:04:42.349Z,15.6
2018-09-11T00:05:43.755Z,15.7
2018-09-11T00:06:45.419Z,15.6
2018-09-11T00:07:46.826Z,15.6
2018-09-11T00:08:48.500Z,15.6
2018-09-11T00:09:50.334Z,15.6
2018-09-11T00:10:51.994Z,15.5
2018-09-11T00:11:53.397Z,15.6
2018-09-11T00:12:55.084Z,15.5
2018-09-11T00:13:56.482Z,15.5
2018-09-11T00:14:58.190Z,15.5
2018-09-11T00:15:59.574Z,15.6
2018-09-11T00:17:01.051Z,15.6
2018-09-11T00:18:02.704Z,15.5
2018-09-11T00:19:04.106Z,15.5
2018-09-11T00:20:05.507Z,15.5
2018-09-11T00:21:07.016Z,15.5
2018-09-11T00:22:08.417Z,15.5
2018-09-11T00:23:10.101Z,15.5
2018-09-11T00:24:11.535Z,15.4
2018-09-11T00:25:13.185Z,15.4
2018-09-11T00:26:14.588Z,15.4
2018-09-11T00:27:16.652Z,15.4
2018-09-11T00:28:18.056Z,15.4
2018-09-11T00:29:19.564Z,15.5
2018-09-11T00:30:20.972Z,15.5
2018-09-11T00:31:22.648Z,15.5
2018-09-11T00:32:24.059Z,15.4
2018-09-11T00:33:25.734Z,15.4
2018-09-11T00:34:27.135Z,15.3
2018-09-11T00:35:28.822Z,15.3
2018-09-11T00:36:30.248Z,15.4
2018-09-11T00:37:31.907Z,15.4
2018-09-11T00:38:33.314Z,15.4
2018-09-11T00:39:34.991Z,15.3
2018-09-11T00:40:36.401Z,15.4
2018-09-11T00:41:38.076Z,15.4
2018-09-11T00:42:39.483Z,15.3
2018-09-11T00:43:41.183Z,15.4
2018-09-11T00:44:42.589Z,15.4
2018-09-11T00:45:44.248Z,15.4
2018-09-11T00:46:45.662Z,15.3
2018-09-11T00:47:47.335Z,15.3
2018-09-11T00:48:48.758Z,15.3
2018-09-11T00:49:50.420Z,15.3
2018-09-11T00:50:52.222Z,15.3
2018-09-11T00:51:53.743Z,15.3
2018-09-11T00:52:55.113Z,15.3
2018-09-11T00:53:56.823Z,15.3
2018-09-11T00:54:58.224Z,15.3
2018-09-11T00:55:59.881Z,15.2
2018-09-11T00:57:01.283Z,15.2
2018-09-11T00:58:02.693Z,15.3
2018-09-11T00:59:04.202Z,15.3
2018-09-11T01:00:05.606Z,15.3
2018-09-11T01:01:07.012Z,15.3
2018-09-11T01:02:08.525Z,15.4
2018-09-11T01:03:09.927Z,15.3
2018-09-11T01:04:11.641Z,15.4
2018-09-11T01:05:13.012Z,15.4
2018-09-11T01:06:14.694Z,15.3
2018-09-11T01:07:16.100Z,15.3
2018-09-11T01:08:17.504Z,15.3
2018-09-11T01:09:19.017Z,15.3
2018-09-11T01:10:20.474Z,15.2
2018-09-11T01:11:22.211Z,15.1
2018-09-11T01:12:23.746Z,15.2
2018-09-11T01:13:25.179Z,15.1
2018-09-11T01:14:26.832Z,15.1
2018-09-11T01:15:28.281Z,15.1
2018-09-11T01:16:29.917Z,15.1
2018-09-11T01:17:31.317Z,15.1
2018-09-11T01:18:33.003Z,15.1
2018-09-11T01:19:34.784Z,15.1
2018-09-11T01:20:36.707Z,15.1
2018-09-11T01:21:38.117Z,15.0
2018-09-11T01:22:39.789Z,15.0
2018-09-11T01:23:41.191Z,15.0
2018-09-11T01:24:42.876Z,15.1
2018-09-11T01:25:44.323Z,15.1
2018-09-11T01:26:45.961Z,15.1
2018-09-11T01:27:47.389Z,15.1
2018-09-11T01:28:49.252Z,15.0
2018-09-11T01:29:50.653Z,15.1
2018-09-11T01:30:52.339Z,14.9
2018-09-11T01:31:53.743Z,15.1
2018-09-11T01:32:55.145Z,15.1
2018-09-11T01:33:56.658Z,15.0
2018-09-11T01:34:58.061Z,15.0
2018-09-11T01:35:59.469Z,15.0
2018-09-11T01:37:00.980Z,15.0
2018-09-11T01:38:02.383Z,15.1
2018-09-11T01:39:03.784Z,15.1
2018-09-11T01:40:05.302Z,15.1
2018-09-11T01:41:06.710Z,15.1
2018-09-11T01:42:08.118Z,15.1
2018-09-11T01:43:09.623Z,15.0
2018-09-11T01:44:11.023Z,15.1
2018-09-11T01:45:12.732Z,15.1
2018-09-11T01:46:14.136Z,15.1
2018-09-11T01:47:15.847Z,15.1
2018-09-11T01:48:17.259Z,15.1
2018-09-11T01:49:18.880Z,15.1
2018-09-11T01:50:20.281Z,15.1
2018-09-11T01:51:21.967Z,15.1
2018-09-11T01:52:23.399Z,15.1
2018-09-11T01:53:24.795Z,15.1
2018-09-11T01:54:26.496Z,15.1
2018-09-11T01:55:27.921Z,15.1
2018-09-11T01:56:29.329Z,15.1
2018-09-11T01:57:31.020Z,15.2
2018-09-11T01:58:32.422Z,15.1
2018-09-11T01:59:33.855Z,15.1
2018-09-11T02:00:35.343Z,15.2
2018-09-11T02:01:36.753Z,15.2
2018-09-11T02:02:38.156Z,15.2
2018-09-11T02:03:39.667Z,15.2
2018-09-11T02:04:41.069Z,15.1
2018-09-11T02:05:42.484Z,15.2
2018-09-11T02:06:44.017Z,15.1
2018-09-11T02:07:45.419Z,15.2
2018-09-11T02:08:46.855Z,15.2
2018-09-11T02:09:48.513Z,15.2
2018-09-11T02:10:49.914Z,15.2
2018-09-11T02:11:51.319Z,15.2
2018-09-11T02:12:52.832Z,15.1
2018-09-11T02:13:54.266Z,15.1
2018-09-11T02:14:55.917Z,15.1
2018-09-11T02:15:57.320Z,15.1
2018-09-11T02:16:58.998Z,15.2
2018-09-11T02:18:00.410Z,15.2
2018-09-11T02:19:02.091Z,15.1
2018-09-11T02:20:03.494Z,15.1
2018-09-11T02:21:05.582Z,15.1
2018-09-11T02:22:06.987Z,15.0
2018-09-11T02:23:08.670Z,15.1
2018-09-11T02:24:10.073Z,15.1
2018-09-11T02:25:11.761Z,15.1
2018-09-11T02:26:13.157Z,15.2
2018-09-11T02:27:14.840Z,15.1
2018-09-11T02:28:16.243Z,15.1
2018-09-11T02:29:17.649Z,15.1
2018-09-11T02:30:19.162Z,15.1
2018-09-11T02:31:20.574Z,15.1
2018-09-11T02:32:21.975Z,15.1
2018-09-11T02:33:23.508Z,15.1
2018-09-11T02:34:24.908Z,15.1
2018-09-11T02:35:26.569Z,15.1
2018-09-11T02:36:27.976Z,15.1
2018-09-11T02:37:29.383Z,15.1
2018-09-11T02:38:30.892Z,15.1
2018-09-11T02:39:32.296Z,15.1
2018-09-11T02:40:33.717Z,15.1
2018-09-11T02:41:35.588Z,15.1
2018-09-11T02:42:36.992Z,15.0
2018-09-11T02:43:38.414Z,15.1
2018-09-11T02:44:39.987Z,15.1
2018-09-11T02:45:41.378Z,15.1
2018-09-11T02:46:43.029Z,15.0
2018-09-11T02:47:44.470Z,15.1
2018-09-11T02:48:45.875Z,15.0
2018-09-11T02:49:47.548Z,15.0
2018-09-11T02:50:48.955Z,15.0
2018-09-11T02:51:50.362Z,15.0
2018-09-11T02:52:51.890Z,15.0
2018-09-11T02:53:53.280Z,14.9
2018-09-11T02:54:54.683Z,15.0
2018-09-11T02:55:56.195Z,15.0
2018-09-11T02:56:57.974Z,15.0
2018-09-11T02:57:59.365Z,15.0
2018-09-11T02:59:00.926Z,15.0
2018-09-11T03:00:02.384Z,14.9
2018-09-11T03:01:04.011Z,14.9
2018-09-11T03:02:05.439Z,14.9
2018-09-11T03:03:06.835Z,14.9
2018-09-11T03:04:08.333Z,14.9
2018-09-11T03:05:09.734Z,14.9
2018-09-11T03:06:11.138Z,14.9
2018-09-11T03:07:12.663Z,14.9
2018-09-11T03:08:14.070Z,14.9
2018-09-11T03:09:15.469Z,14.9
2018-09-11T03:10:16.978Z,14.9
2018-09-11T03:11:18.378Z,14.9
2018-09-11T03:12:20.062Z,14.9
2018-09-11T03:13:21.464Z,14.9
2018-09-11T03:14:22.892Z,14.9
2018-09-11T03:15:24.382Z,14.9
2018-09-11T03:16:25.820Z,14.9
2018-09-11T03:17:27.237Z,14.9
2018-09-11T03:18:29.290Z,14.9
2018-09-11T03:19:30.697Z,14.9
2018-09-11T03:20:32.198Z,14.9
2018-09-11T03:21:33.637Z,14.9
2018-09-11T03:22:35.287Z,14.9
2018-09-11T03:23:36.691Z,14.9
2018-09-11T03:24:38.092Z,14.9
2018-09-11T03:25:39.606Z,14.9
2018-09-11T03:26:41.009Z,14.9
2018-09-11T03:27:42.410Z,14.9
2018-09-11T03:28:43.929Z,14.9
2018-09-11T03:29:45.337Z,14.9
2018-09-11T03:30:47.013Z,14.9
2018-09-11T03:31:48.795Z,14.9
2018-09-11T03:32:50.302Z,14.9
2018-09-11T03:33:51.738Z,14.8
2018-09-11T03:34:53.388Z,14.9
2018-09-11T03:35:54.822Z,14.9
2018-09-11T03:36:56.851Z,14.9
2018-09-11T03:37:58.258Z,15.0
2018-09-11T03:39:00.012Z,14.9
2018-09-11T03:40:01.413Z,14.9
2018-09-11T03:41:03.061Z,14.9
2018-09-11T03:42:04.459Z,14.9
2018-09-11T03:43:06.162Z,14.9
2018-09-11T03:44:07.920Z,14.9
2018-09-11T03:45:09.431Z,14.9
2018-09-11T03:46:10.865Z,14.9
2018-09-11T03:47:12.523Z,14.9
2018-09-11T03:48:14.015Z,14.9
2018-09-11T03:49:15.768Z,14.9
2018-09-11T03:50:17.247Z,15.0
2018-09-11T03:51:18.650Z,15.0
2018-09-11T03:52:20.060Z,14.9
2018-09-11T03:53:21.569Z,15.0
2018-09-11T03:54:22.974Z,14.9
2018-09-11T03:55:24.654Z,15.0
2018-09-11T03:56:26.435Z,14.9
2018-09-11T03:57:27.943Z,15.0
2018-09-11T03:58:29.344Z,15.0
2018-09-11T03:59:31.030Z,15.0
2018-09-11T04:00:32.505Z,14.9
2018-09-11T04:01:34.116Z,15.0
2018-09-11T04:02:35.520Z,14.9
2018-09-11T04:03:37.013Z,15.0
2018-09-11T04:04:38.407Z,15.0
2018-09-11T04:05:40.128Z,15.1
2018-09-11T04:06:41.516Z,15.0
2018-09-11T04:07:43.004Z,14.9
2018-09-11T04:08:44.419Z,15.0
2018-09-11T04:09:46.048Z,15.0
2018-09-11T04:10:47.451Z,15.0
2018-09-11T04:11:48.986Z,15.0
2018-09-11T04:12:50.745Z,15.1
2018-09-11T04:13:52.430Z,15.1
2018-09-11T04:14:53.827Z,15.2
2018-09-11T04:15:55.228Z,15.2
2018-09-11T04:16:56.749Z,15.2
2018-09-11T04:17:58.473Z,15.2
2018-09-11T04:18:59.845Z,15.3
2018-09-11T04:20:01.553Z,15.3
2018-09-11T04:21:02.967Z,15.3
2018-09-11T04:22:04.563Z,15.3
2018-09-11T04:23:05.966Z,15.4
2018-09-11T04:24:07.394Z,15.4
2018-09-11T04:25:08.838Z,15.5
2018-09-11T04:26:10.250Z,15.4
2018-09-11T04:27:11.667Z,15.5
2018-09-11T04:28:13.216Z,15.5
2018-09-11T04:29:14.659Z,15.4
2018-09-11T04:30:16.120Z,15.4
2018-09-11T04:31:17.735Z,15.5
2018-09-11T04:32:19.167Z,15.5
2018-09-11T04:33:20.568Z,15.5
2018-09-11T04:34:22.013Z,15.6
2018-09-11T04:35:23.419Z,15.6
2018-09-11T04:36:24.931Z,15.6
2018-09-11T04:37:26.278Z,15.6
2018-09-11T04:38:27.755Z,15.6
2018-09-11T04:39:29.204Z,15.6
2018-09-11T04:40:30.601Z,15.7
2018-09-11T04:41:32.105Z,15.8
2018-09-11T04:42:33.516Z,15.8
2018-09-11T04:43:34.913Z,15.8
2018-09-11T04:44:36.400Z,15.8
2018-09-11T04:45:37.810Z,15.9
2018-09-11T04:46:39.322Z,15.9
2018-09-11T04:47:40.725Z,15.8
2018-09-11T04:48:42.193Z,15.8
2018-09-11T04:49:43.594Z,15.8
2018-09-11T04:50:45.052Z,15.9
2018-09-11T04:51:46.456Z,15.9
2018-09-11T04:52:47.924Z,15.9
2018-09-11T04:53:49.366Z,15.9
2018-09-11T04:54:50.809Z,15.9
2018-09-11T04:55:52.247Z,15.9
2018-09-11T04:56:53.688Z,15.9
2018-09-11T04:57:55.093Z,15.9
2018-09-11T04:58:56.573Z,15.9
2018-09-11T04:59:57.975Z,15.9
2018-09-11T05:00:59.487Z,15.9
2018-09-11T05:02:00.892Z,15.9
2018-09-11T05:03:02.355Z,15.9
2018-09-11T05:04:03.777Z,15.9
2018-09-11T05:05:05.176Z,15.9
2018-09-11T05:06:06.656Z,15.9
2018-09-11T05:07:08.067Z,15.9
2018-09-11T05:08:09.629Z,15.9
2018-09-11T05:09:11.034Z,15.9
2018-09-11T05:10:12.473Z,15.9
2018-09-11T05:11:14.117Z,15.9
2018-09-11T05:12:15.557Z,15.8
2018-09-11T05:13:16.957Z,15.8
2018-09-11T05:14:18.386Z,15.9
2018-09-11T05:15:19.802Z,15.8
2018-09-11T05:16:21.663Z,15.8
2018-09-11T05:17:23.074Z,15.8
2018-09-11T05:18:24.548Z,15.8
2018-09-11T05:19:25.965Z,15.8
2018-09-11T05:20:27.436Z,15.8
2018-09-11T05:21:28.844Z,15.8
2018-09-11T05:22:30.329Z,15.9
2018-09-11T05:23:31.738Z,15.8
2018-09-11T05:24:33.239Z,15.9
2018-09-11T05:25:34.677Z,15.9
2018-09-11T05:26:36.048Z,15.9
2018-09-11T05:27:37.519Z,16.0
2018-09-11T05:28:38.950Z,16.0
2018-09-11T05:29:40.390Z,16.1
2018-09-11T05:30:41.842Z,16.1
2018-09-11T05:31:43.274Z,16.2
2018-09-11T05:32:44.747Z,16.1
2018-09-11T05:33:46.154Z,16.1
2018-09-11T05:34:48.059Z,16.2
2018-09-11T05:35:49.534Z,16.2
2018-09-11T05:36:50.942Z,16.1
2018-09-11T05:37:52.350Z,16.1
2018-09-11T05:38:53.798Z,16.2
2018-09-11T05:39:55.261Z,16.2
2018-09-11T05:40:56.680Z,16.1
2018-09-11T05:41:58.094Z,16.0
2018-09-11T05:42:59.504Z,16.2
2018-09-11T05:44:00.983Z,16.1
2018-09-11T05:45:02.396Z,16.1
2018-09-11T05:46:03.860Z,16.2
2018-09-11T05:47:05.339Z,16.2
2018-09-11T05:48:06.739Z,16.2
2018-09-11T05:49:08.139Z,16.2
2018-09-11T05:50:09.571Z,16.2
2018-09-11T05:51:11.127Z,16.2
2018-09-11T05:52:12.537Z,16.3
2018-09-11T05:53:13.984Z,16.3
2018-09-11T05:54:15.589Z,16.4
2018-09-11T05:55:16.994Z,16.3
2018-09-11T05:56:18.402Z,16.5
2018-09-11T05:57:19.905Z,16.5
2018-09-11T05:58:21.356Z,16.5
2018-09-11T05:59:22.788Z,16.5
2018-09-11T06:00:24.214Z,16.6
2018-09-11T06:01:25.673Z,16.6
2018-09-11T06:02:27.081Z,16.6
2018-09-11T06:03:28.551Z,16.7
2018-09-11T06:04:29.955Z,16.7
2018-09-11T06:05:31.525Z,16.8
2018-09-11T06:06:32.884Z,16.9
2018-09-11T06:07:34.350Z,16.9
2018-09-11T06:08:35.769Z,16.9
2018-09-11T06:09:37.195Z,17.0
2018-09-11T06:10:38.600Z,17.0
2018-09-11T06:11:40.075Z,17.1
2018-09-11T06:12:41.544Z,17.1
2018-09-11T06:13:43.163Z,17.1
2018-09-11T06:14:44.600Z,17.3
2018-09-11T06:15:46.004Z,17.3
2018-09-11T06:16:47.504Z,17.4
2018-09-11T06:17:48.912Z,17.6
2018-09-11T06:18:50.387Z,17.6
2018-09-11T06:19:51.857Z,17.7
2018-09-11T06:20:53.266Z,17.8
2018-09-11T06:21:54.742Z,17.9
2018-09-11T06:22:56.335Z,17.8
2018-09-11T06:23:57.748Z,17.8
2018-09-11T06:24:59.220Z,17.9
2018-09-11T06:26:00.619Z,17.7
2018-09-11T06:27:02.093Z,17.7
2018-09-11T06:28:03.495Z,17.7
2018-09-11T06:29:05.014Z,17.8
2018-09-11T06:30:06.384Z,17.9
2018-09-11T06:31:07.787Z,17.9
2018-09-11T06:32:09.299Z,17.8
2018-09-11T06:33:10.706Z,17.8
2018-09-11T06:34:12.148Z,17.9
2018-09-11T06:35:13.618Z,17.9
2018-09-11T06:36:15.050Z,18.3
2018-09-11T06:37:16.469Z,18.5
2018-09-11T06:38:17.965Z,18.7
2018-09-11T06:39:19.379Z,19.0
2018-09-11T06:40:20.786Z,19.1
2018-09-11T06:41:22.263Z,18.9
2018-09-11T06:42:23.669Z,18.9
2018-09-11T06:43:25.123Z,18.9
2018-09-11T06:44:26.630Z,19.1
2018-09-11T06:45:28.040Z,19.4
2018-09-11T06:46:29.512Z,19.5
2018-09-11T06:47:30.930Z,19.8
2018-09-11T06:48:32.576Z,20.1
2018-09-11T06:49:33.992Z,20.3
2018-09-11T06:50:35.498Z,20.4
2018-09-11T06:51:36.907Z,20.6
2018-09-11T06:52:38.566Z,20.8
2018-09-11T06:53:39.975Z,20.8
2018-09-11T06:54:41.466Z,21.0
2018-09-11T06:55:42.892Z,21.2
2018-09-11T06:56:44.305Z,21.4
2018-09-11T06:57:45.977Z,21.5
2018-09-11T06:58:47.385Z,21.7
2018-09-11T06:59:48.799Z,21.9
2018-09-11T07:00:50.299Z,22.1
2018-09-11T07:01:51.773Z,22.2
2018-09-11T07:02:53.596Z,22.3
2018-09-11T07:03:55.010Z,22.5
2018-09-11T07:04:56.674Z,22.5
2018-09-11T07:05:58.077Z,22.5
2018-09-11T07:06:59.484Z,22.7
2018-09-11T07:08:00.997Z,22.6
2018-09-11T07:09:02.399Z,22.6
2018-09-11T07:10:03.828Z,22.7
2018-09-11T07:11:05.311Z,22.6
2018-09-11T07:12:06.719Z,22.4
2018-09-11T07:13:08.192Z,22.4
2018-09-11T07:14:09.599Z,22.4
2018-09-11T07:15:11.084Z,22.2
2018-09-11T07:16:12.495Z,22.0
2018-09-11T07:17:13.907Z,21.8
2018-09-11T07:18:15.393Z,21.7
2018-09-11T07:19:16.802Z,21.6
2018-09-11T07:20:18.394Z,21.5
2018-09-11T07:21:19.729Z,21.4
2018-09-11T07:22:21.129Z,21.3
2018-09-11T07:23:22.602Z,21.2
2018-09-11T07:24:24.008Z,21.1
2018-09-11T07:25:25.477Z,21.0
2018-09-11T07:26:26.887Z,20.9
2018-09-11T07:27:28.682Z,20.8
2018-09-11T07:28:30.207Z,20.9
2018-09-11T07:29:31.619Z,20.7
2018-09-11T07:30:33.076Z,20.7
2018-09-11T07:31:34.533Z,20.7
2018-09-11T07:32:35.947Z,20.6
2018-09-11T07:33:37.344Z,20.7
2018-09-11T07:34:38.851Z,20.8
2018-09-11T07:35:40.258Z,20.7
2018-09-11T07:36:41.675Z,20.9
2018-09-11T07:37:43.181Z,20.9
2018-09-11T07:38:44.577Z,20.8
2018-09-11T07:39:45.986Z,20.8
2018-09-11T07:40:47.565Z,20.9
2018-09-11T07:41:48.935Z,20.9
2018-09-11T07:42:50.339Z,20.9
2018-09-11T07:43:51.815Z,20.9
2018-09-11T07:44:53.232Z,20.9
2018-09-11T07:45:54.748Z,20.9
2018-09-11T07:46:56.160Z,20.9
2018-09-11T07:47:57.780Z,20.8
2018-09-11T07:48:59.225Z,20.9
2018-09-11T07:50:00.872Z,20.9
2018-09-11T07:51:02.275Z,20.9
2018-09-11T07:52:04.072Z,20.9
2018-09-11T07:53:05.618Z,21.0
2018-09-11T07:54:07.026Z,21.0
2018-09-11T07:55:08.433Z,21.0
2018-09-11T07:56:10.298Z,21.0
2018-09-11T07:57:11.710Z,21.1
2018-09-11T07:58:13.245Z,21.1
2018-09-11T07:59:14.664Z,21.1
2018-09-11T08:00:16.296Z,21.0
2018-09-11T08:01:17.707Z,21.0
2018-09-11T08:02:19.187Z,21.0
2018-09-11T08:03:20.598Z,20.9
2018-09-11T08:04:22.056Z,21.0
2018-09-11T08:05:23.468Z,20.9
2018-09-11T08:06:26.983Z,20.9
2018-09-11T08:07:29.333Z,20.9
2018-09-11T08:08:31.286Z,21.0
2018-09-11T08:09:32.922Z,21.1
2018-09-11T08:10:35.272Z,21.2
2018-09-11T08:11:36.852Z,21.2
2018-09-11T08:12:38.258Z,21.1
2018-09-11T08:13:39.758Z,21.4
2018-09-11T08:14:41.164Z,21.3
2018-09-11T08:15:42.819Z,21.4
2018-09-11T08:16:44.225Z,21.4
2018-09-11T08:17:45.634Z,21.5
2018-09-11T08:18:47.166Z,21.7
2018-09-11T08:19:48.599Z,22.0
2018-09-11T08:20:49.983Z,22.2
2018-09-11T08:21:51.464Z,22.3
2018-09-11T08:22:53.289Z,22.3
2018-09-11T08:23:54.760Z,22.3
2018-09-11T08:24:56.172Z,22.4
2018-09-11T08:25:57.658Z,22.4
2018-09-11T08:26:59.050Z,22.4
2018-09-11T08:28:00.694Z,22.5
2018-09-11T08:29:02.209Z,22.5
2018-09-11T08:30:03.626Z,22.7
2018-09-11T08:31:05.039Z,22.6
2018-09-11T08:32:06.689Z,22.7
2018-09-11T08:33:08.116Z,22.8
2018-09-11T08:34:09.641Z,23.0
2018-09-11T08:35:11.217Z,23.0
2018-09-11T08:36:12.630Z,22.9
2018-09-11T08:37:14.046Z,23.1
2018-09-11T08:38:15.566Z,22.9
2018-09-11T08:39:16.987Z,23.1
2018-09-11T08:40:18.414Z,23.2
2018-09-11T08:41:20.062Z,23.2
2018-09-11T08:42:21.469Z,23.5
2018-09-11T08:43:22.883Z,23.5
2018-09-11T08:44:24.388Z,23.6
2018-09-11T08:45:25.831Z,23.7
2018-09-11T08:46:27.465Z,23.7
2018-09-11T08:47:28.874Z,23.7
2018-09-11T08:48:30.282Z,23.7
2018-09-11T08:49:31.786Z,23.8
2018-09-11T08:50:33.197Z,23.8
2018-09-11T08:51:34.605Z,24.0
2018-09-11T08:52:36.183Z,24.4
2018-09-11T08:53:37.515Z,24.6
2018-09-11T08:54:38.989Z,24.6
2018-09-11T08:55:40.392Z,24.5
2018-09-11T08:56:41.867Z,24.2
2018-09-11T08:57:43.278Z,24.4
2018-09-11T08:58:44.751Z,24.4
2018-09-11T08:59:46.157Z,24.5
2018-09-11T09:00:47.631Z,24.2
2018-09-11T09:01:49.079Z,24.0
2018-09-11T09:02:50.905Z,24.1
2018-09-11T09:03:52.373Z,24.3
2018-09-11T09:04:54.210Z,24.3
2018-09-11T09:05:55.614Z,24.4
2018-09-11T09:06:57.105Z,24.5
2018-09-11T09:07:58.513Z,24.6
2018-09-11T09:08:59.917Z,24.6
2018-09-11T09:10:01.446Z,24.8
2018-09-11T09:11:02.835Z,24.7
2018-09-11T09:12:04.243Z,24.6
2018-09-11T09:13:05.743Z,24.5
2018-09-11T09:14:07.147Z,24.6
2018-09-11T09:15:08.560Z,24.7
2018-09-11T09:16:10.059Z,24.6
2018-09-11T09:17:11.469Z,24.6
2018-09-11T09:18:12.888Z,24.5
2018-09-11T09:19:14.385Z,24.5
2018-09-11T09:20:15.790Z,24.6
2018-09-11T09:21:17.203Z,24.5
2018-09-11T09:22:18.740Z,24.5
2018-09-11T09:23:20.146Z,24.6
2018-09-11T09:24:21.559Z,24.7
2018-09-11T09:25:23.024Z,24.8
2018-09-11T09:26:24.429Z,24.8
2018-09-11T09:27:25.877Z,24.8
2018-09-11T09:28:27.742Z,24.8
2018-09-11T09:29:29.156Z,24.9
2018-09-11T09:30:30.568Z,24.8
2018-09-11T09:31:32.076Z,24.9
2018-09-11T09:32:33.479Z,24.8
2018-09-11T09:33:34.893Z,24.8
2018-09-11T09:34:36.402Z,24.8
2018-09-11T09:35:37.801Z,24.8
2018-09-11T09:36:39.308Z,24.8
2018-09-11T09:37:41.066Z,24.8
2018-09-11T09:38:42.481Z,24.9
2018-09-11T09:39:44.006Z,24.7
2018-09-11T09:40:45.414Z,24.8
2018-09-11T09:41:46.830Z,24.7
2018-09-11T09:42:48.325Z,24.8
2018-09-11T09:43:49.782Z,24.8
2018-09-11T09:44:51.215Z,24.7
2018-09-11T09:45:52.618Z,24.7
2018-09-11T09:46:54.096Z,24.6
2018-09-11T09:47:55.503Z,24.6
2018-09-11T09:48:56.918Z,24.8
2018-09-11T09:49:58.459Z,25.0
2018-09-11T09:51:00.342Z,25.1
2018-09-11T09:52:01.743Z,25.3
2018-09-11T09:53:03.347Z,25.4
2018-09-11T09:54:04.756Z,25.5
2018-09-11T09:55:06.224Z,25.9
2018-09-11T09:56:07.650Z,26.1
2018-09-11T09:57:09.106Z,26.1
2018-09-11T09:58:10.516Z,26.1
2018-09-11T09:59:11.920Z,25.9
2018-09-11T10:00:13.460Z,26.0
2018-09-11T10:01:14.869Z,26.2
2018-09-11T10:02:16.280Z,26.4
2018-09-11T10:03:17.746Z,26.5
2018-09-11T10:04:19.177Z,26.2
2018-09-11T10:05:20.832Z,26.4
2018-09-11T10:06:22.255Z,26.7
2018-09-11T10:07:23.713Z,26.8
2018-09-11T10:08:25.131Z,26.6
2018-09-11T10:09:26.599Z,26.3
2018-09-11T10:10:28.011Z,26.1
2018-09-11T10:11:29.487Z,25.9
2018-09-11T10:12:30.925Z,25.9
2018-09-11T10:13:32.563Z,25.7
2018-09-11T10:14:33.977Z,25.7
2018-09-11T10:15:35.443Z,25.6
2018-09-11T10:16:36.855Z,25.6
2018-09-11T10:17:38.383Z,25.6
2018-09-11T10:18:40.145Z,25.5
2018-09-11T10:19:41.562Z,25.5
2018-09-11T10:20:43.055Z,25.6
2018-09-11T10:21:44.460Z,25.5
2018-09-11T10:22:45.872Z,25.5
2018-09-11T10:23:47.377Z,25.6
2018-09-11T10:24:48.793Z,25.5
2018-09-11T10:25:50.204Z,25.5
2018-09-11T10:26:51.711Z,25.5
2018-09-11T10:27:53.135Z,25.5
2018-09-11T10:28:54.568Z,25.4
2018-09-11T10:29:56.021Z,25.5
2018-09-11T10:30:57.434Z,25.4
2018-09-11T10:31:58.848Z,25.2
2018-09-11T10:33:00.343Z,25.3
2018-09-11T10:34:01.756Z,25.2
2018-09-11T10:35:03.164Z,25.2
2018-09-11T10:36:04.666Z,25.2
2018-09-11T10:37:06.069Z,25.2
2018-09-11T10:38:07.547Z,25.2
2018-09-11T10:39:08.960Z,25.3
2018-09-11T10:40:10.412Z,25.3
2018-09-11T10:41:11.813Z,25.4
2018-09-11T10:42:13.312Z,25.4
2018-09-11T10:43:14.720Z,25.4
2018-09-11T10:44:16.128Z,25.5
2018-09-11T10:45:17.632Z,25.4
2018-09-11T10:46:19.065Z,25.4
2018-09-11T10:47:20.476Z,25.4
2018-09-11T10:48:21.958Z,25.4
2018-09-11T10:49:23.366Z,25.3
2018-09-11T10:50:24.768Z,25.3
2018-09-11T10:51:26.316Z,25.2
2018-09-11T10:52:27.989Z,25.2
2018-09-11T10:53:32.887Z,25.1
2018-09-11T10:54:34.534Z,25.1
2018-09-11T10:55:36.018Z,25.1
2018-09-11T10:56:37.491Z,25.1
2018-09-11T10:57:39.053Z,25.0
2018-09-11T10:58:40.560Z,25.1
2018-09-11T10:59:42.073Z,25.1
2018-09-11T11:00:43.550Z,25.1
2018-09-11T11:01:45.009Z,25.1
2018-09-11T11:02:46.475Z,25.1
2018-09-11T11:03:48.169Z,25.1
2018-09-11T11:04:49.638Z,25.1
2018-09-11T11:05:51.209Z,25.1
2018-09-11T11:06:52.719Z,25.0
2018-09-11T11:07:54.311Z,25.0
2018-09-11T11:08:55.789Z,25.0
2018-09-11T11:09:57.399Z,24.9
2018-09-11T11:10:58.898Z,24.9
2018-09-11T11:12:00.445Z,24.9
2018-09-11T11:13:01.962Z,24.8
2018-09-11T11:14:03.437Z,24.8
2018-09-11T11:15:04.991Z,24.8
2018-09-11T11:16:06.483Z,24.8
2018-09-11T11:17:07.909Z,24.8
2018-09-11T11:18:09.435Z,24.8
2018-09-11T11:19:10.916Z,24.8
2018-09-11T11:20:12.377Z,24.7
2018-09-11T11:21:13.896Z,24.7
2018-09-11T11:22:15.472Z,24.8
2018-09-11T11:23:17.099Z,24.7
2018-09-11T11:24:18.593Z,24.7
2018-09-11T11:25:20.038Z,24.6
2018-09-11T11:26:21.683Z,24.7
2018-09-11T11:27:23.203Z,24.6
2018-09-11T11:28:24.691Z,24.6
2018-09-11T11:29:26.245Z,24.7
2018-09-11T11:30:27.766Z,24.7
2018-09-11T11:31:29.597Z,24.6
2018-09-11T11:32:31.172Z,24.7
2018-09-11T11:33:32.696Z,24.6
2018-09-11T11:34:34.240Z,24.6
2018-09-11T11:35:35.852Z,24.7
2018-09-11T11:36:37.399Z,24.6
2018-09-11T11:37:38.775Z,24.6
2018-09-11T11:38:40.362Z,24.6
2018-09-11T11:39:41.854Z,24.6
2018-09-11T11:40:43.293Z,24.5
2018-09-11T11:41:45.232Z,24.5
2018-09-11T11:42:46.737Z,24.5
2018-09-11T11:43:48.208Z,24.5
2018-09-11T11:44:49.815Z,24.5
2018-09-11T11:45:51.292Z,24.5
2018-09-11T11:46:52.801Z,24.5
2018-09-11T11:47:54.527Z,24.5
2018-09-11T11:48:56.278Z,24.5
2018-09-11T11:49:57.685Z,24.5
2018-09-11T11:50:59.258Z,24.4
2018-09-11T11:52:00.718Z,24.4
2018-09-11T11:53:02.345Z,24.5
2018-09-11T11:54:03.766Z,24.5
2018-09-11T11:55:05.476Z,24.5
2018-09-11T11:56:06.840Z,24.5
2018-09-11T11:57:08.512Z,24.6
2018-09-11T11:58:09.928Z,24.5
2018-09-11T11:59:11.403Z,24.6
2018-09-11T12:00:12.820Z,24.5
2018-09-11T12:01:14.271Z,24.5
2018-09-11T12:02:15.939Z,24.5
2018-09-11T12:03:17.365Z,24.5
2018-09-11T12:04:18.992Z,24.5
2018-09-11T12:05:20.428Z,24.6
2018-09-11T12:06:21.867Z,24.5
2018-09-11T12:07:23.294Z,24.5
2018-09-11T12:08:24.744Z,24.5
2018-09-11T12:09:26.151Z,24.5
2018-09-11T12:10:27.620Z,24.5
2018-09-11T12:11:29.031Z,24.5
2018-09-11T12:12:30.551Z,24.6
2018-09-11T12:13:31.967Z,24.5
2018-09-11T12:14:33.595Z,24.5
2018-09-11T12:15:35.078Z,24.5
2018-09-11T12:16:37.066Z,24.5
2018-09-11T12:17:38.464Z,24.5
2018-09-11T12:18:39.962Z,24.4
2018-09-11T12:19:41.372Z,24.4
2018-09-11T12:20:42.850Z,24.4
2018-09-11T12:21:44.255Z,24.4
2018-09-11T12:22:45.730Z,24.4
2018-09-11T12:23:47.133Z,24.4
2018-09-11T12:24:48.657Z,24.3
2018-09-11T12:25:50.019Z,24.5
2018-09-11T12:26:51.606Z,24.5
2018-09-11T12:27:53.196Z,24.3
2018-09-11T12:28:54.573Z,24.4
2018-09-11T12:29:55.980Z,24.3
2018-09-11T12:30:57.462Z,24.4
2018-09-11T12:31:58.875Z,24.4
2018-09-11T12:33:00.336Z,24.4
2018-09-11T12:34:02.131Z,24.4
2018-09-11T12:35:03.673Z,24.4
2018-09-11T12:36:05.051Z,24.5
2018-09-11T12:37:06.511Z,24.4
2018-09-11T12:38:07.921Z,24.4
2018-09-11T12:39:09.390Z,24.4
2018-09-11T12:40:10.795Z,24.5
2018-09-11T12:41:12.205Z,24.4
2018-09-11T12:42:13.711Z,24.4
2018-09-11T12:43:15.119Z,24.4
2018-09-11T12:44:16.525Z,24.4
2018-09-11T12:45:18.224Z,24.3
2018-09-11T12:46:19.736Z,24.4
2018-09-11T12:47:21.427Z,24.3
2018-09-11T12:48:23.185Z,24.4
2018-09-11T12:49:24.407Z,24.4
2018-09-11T12:50:25.815Z,24.4
2018-09-11T12:51:27.291Z,24.3
2018-09-11T12:52:28.749Z,24.4
2018-09-11T12:53:30.171Z,24.4
2018-09-11T12:54:31.579Z,24.3
2018-09-11T12:55:32.987Z,24.3
2018-09-11T12:56:34.513Z,24.4
2018-09-11T12:57:35.913Z,24.4
2018-09-11T12:58:37.703Z,24.4
2018-09-11T12:59:39.224Z,24.3
2018-09-11T13:00:40.626Z,24.3
2018-09-11T13:01:42.037Z,24.4
2018-09-11T13:02:43.545Z,24.3
2018-09-11T13:03:44.956Z,24.3
2018-09-11T13:04:46.371Z,24.4
2018-09-11T13:05:47.863Z,24.4
2018-09-11T13:06:49.277Z,24.4
2018-09-11T13:07:50.745Z,24.4
2018-09-11T13:08:52.151Z,24.4
2018-09-11T13:09:53.626Z,24.3
2018-09-11T13:10:55.037Z,24.4
2018-09-11T13:11:56.467Z,24.3
2018-09-11T13:12:57.948Z,24.3
2018-09-11T13:13:59.357Z,24.3
2018-09-11T13:15:00.791Z,24.3
2018-09-11T13:16:02.299Z,24.3
2018-09-11T13:17:03.677Z,24.4
2018-09-11T13:18:05.149Z,24.2
2018-09-11T13:19:06.555Z,24.2
2018-09-11T13:20:08.030Z,24.3
2018-09-11T13:21:09.440Z,24.2
2018-09-11T13:22:10.858Z,24.2
2018-09-11T13:23:12.461Z,24.2
2018-09-11T13:24:13.863Z,24.2
2018-09-11T13:25:15.304Z,24.2
2018-09-11T13:26:16.982Z,24.2
2018-09-11T13:27:18.386Z,24.2
2018-09-11T13:28:19.805Z,24.3
2018-09-11T13:29:21.507Z,24.2
2018-09-11T13:30:22.915Z,24.2
2018-09-11T13:31:24.317Z,24.1
2018-09-11T13:32:26.033Z,24.1
2018-09-11T13:33:27.442Z,24.1
2018-09-11T13:34:28.850Z,24.1
2018-09-11T13:35:30.563Z,24.1
2018-09-11T13:36:31.971Z,24.2
2018-09-11T13:37:33.375Z,24.2
2018-09-11T13:38:35.090Z,24.2